Omega, Oklahoma
Current Conditions -  °F | °C
As of 8:15 AM on Thursday 27 Nov 2014 (Local Time) from KJWG Reporting Station
Clear Clear  
Wind Chill: -3°   Ceiling: Unl
Heat Index: -3°   Visibility: 10mi
Dew Point: -4°   Wind: 0mph
Humidity: 95%   Direction: NA
Pressure: 30.52"   Gusts: NA
Location:  35.87°N, 98.2°W
Report Text: KJWG 271415Z AUTO 00000KT 10SM CLR M03/M04 A3052 RMK AO2 T10301037
Loading
Personal Weather Stations






























Interactive Weather Map New forecast layout! Learn more

10-Day Weather Forecast

Advertisements
Track Severe Weather on mobile